»·PEaware :: N444FG KFUL-KSAN

N444FG :: KFUL-KSAN

FLIGHT INFORMATION

Flight Status: Arrived
Operator: Privately registered:
United States
More flights under this callsign
Pilot: Bill F. (18685)
Aircraft: PIPER PA-28R-201 ARROW
(P28R)
More flights by this aircraft type
Origin: KFUL Fullerton Mun
United States
Destination: KSAN San Diego Intl-Lindbergh
United States
More flights between these airports :: More routes between these airports
Route: OCN
File this flight plan on PilotEdge
Remarks:
Altitude:
(Current/Filed)
5,500ft
Speed:
(Current/Filed)
0kts
Departed: 29-Jul-18 12:12 PM
Arrived: 29-Jul-18 12:52 PM
Distance/Time
Traveled:
79nm/0:39
Distance/Time
To Go:
Arrived

Flight Plot

Page will automatically refresh every two minutes.

Flight plan parsing failed; only flown route is shown


Map Options




Map Legend


Flown Route
Filed Route
Departure Airport
Arrival Airport
Navaid (VOR, NDB)
Fix

Horizontal Profiles

Position Reports

Time Latitude Longitude Heading Altitude Ground
Speed
29-Jul-18 11:56 33.870569 -117.979330 359 93ft 0kts
29-Jul-18 11:57 33.870569 -117.979330 359 93ft 0kts
29-Jul-18 11:58 33.870569 -117.979330 359 93ft 0kts
29-Jul-18 11:59 33.870569 -117.979330 359 93ft 0kts
29-Jul-18 12:00 33.870569 -117.979330 359 93ft 0kts
29-Jul-18 12:01 33.870569 -117.979330 359 93ft 0kts
29-Jul-18 12:02 33.870569 -117.979330 359 93ft 0kts
29-Jul-18 12:03 33.870569 -117.979330 359 93ft 0kts
29-Jul-18 12:04 33.870569 -117.979330 359 93ft 0kts
29-Jul-18 12:05 33.870603 -117.979328 8 93ft 2kts
29-Jul-18 12:06 33.872067 -117.977120 87 93ft 17kts
29-Jul-18 12:07 33.872585 -117.974849 47 93ft 0kts
29-Jul-18 12:08 33.872585 -117.974849 47 93ft 0kts
29-Jul-18 12:09 33.872585 -117.974849 47 93ft 0kts
29-Jul-18 12:10 33.872585 -117.974849 47 93ft 0kts
29-Jul-18 12:11 33.872585 -117.974849 47 93ft 0kts
29-Jul-18 12:12 33.872909 -117.974863 320 93ft 3kts
29-Jul-18 12:13 33.869985 -117.990057 251 668ft 74kts
29-Jul-18 12:14 33.853998 -117.987105 128 1787ft 79kts
29-Jul-18 12:15 33.835610 -117.966120 160 2621ft 106kts
29-Jul-18 12:16 33.807584 -117.950320 152 3159ft 133kts
29-Jul-18 12:17 33.773041 -117.928875 150 3137ft 141kts
29-Jul-18 12:18 33.738108 -117.907967 153 3220ft 136kts
29-Jul-18 12:19 33.704039 -117.887733 153 3317ft 137kts
29-Jul-18 12:20 33.669877 -117.867402 153 3395ft 138kts
29-Jul-18 12:21 33.636164 -117.847236 153 3430ft 135kts
29-Jul-18 12:22 33.602579 -117.826998 152 3431ft 135kts
29-Jul-18 12:23 33.568885 -117.806961 157 3430ft 135kts
29-Jul-18 12:24 33.536230 -117.785953 132 3432ft 135kts
29-Jul-18 12:25 33.510913 -117.752440 131 3434ft 136kts
29-Jul-18 12:26 33.485501 -117.718650 131 3437ft 137kts
29-Jul-18 12:27 33.460082 -117.684578 131 3441ft 138kts
29-Jul-18 12:28 33.434590 -117.649640 130 3445ft 139kts
29-Jul-18 12:29 33.409463 -117.614139 130 3448ft 140kts
29-Jul-18 12:30 33.384576 -117.578103 130 3438ft 140kts
29-Jul-18 12:31 33.360068 -117.541869 130 3434ft 137kts
29-Jul-18 12:32 33.336858 -117.506329 130 3430ft 135kts
29-Jul-18 12:33 33.313972 -117.471036 130 3426ft 134kts
29-Jul-18 12:34 33.290328 -117.436909 154 3415ft 131kts
29-Jul-18 12:35 33.257108 -117.419110 157 3421ft 130kts
29-Jul-18 12:36 33.223924 -117.401502 160 3421ft 130kts
29-Jul-18 12:37 33.189705 -117.387244 162 3424ft 130kts
29-Jul-18 12:38 33.155390 -117.372802 162 3427ft 131kts
29-Jul-18 12:39 33.120023 -117.357532 162 3431ft 137kts
29-Jul-18 12:40 33.084061 -117.341885 162 3430ft 138kts
29-Jul-18 12:41 33.047940 -117.326038 162 3431ft 138kts
29-Jul-18 12:42 33.011685 -117.310157 162 3432ft 139kts
29-Jul-18 12:43 32.975114 -117.294343 162 3433ft 140kts
29-Jul-18 12:44 32.938262 -117.278734 162 3434ft 141kts
29-Jul-18 12:45 32.902081 -117.262702 158 3369ft 133kts
29-Jul-18 12:46 32.870346 -117.241091 156 2907ft 139kts
29-Jul-18 12:47 32.836629 -117.227778 164 2766ft 123kts
29-Jul-18 12:48 32.804617 -117.215949 170 2648ft 119kts
29-Jul-18 12:49 32.773226 -117.207871 170 1645ft 97kts
29-Jul-18 12:50 32.747102 -117.191958 123 882ft 109kts
29-Jul-18 12:51 32.736394 -117.167378 179 677ft 69kts
29-Jul-18 12:52 32.731911 -117.183240 303 18ft 45kts
29-Jul-18 12:53 32.734199 -117.187708 82 18ft 8kts

Navigation Log

Ident Type
Flight plan parsing failed, navigation log unavailable